sensor_id;sensor_type;location;lat;lon;timestamp;P1;durP1;ratioP1;P2;durP2;ratioP2
36855;SDS011;22788;51.434;6.786;2023-11-18T00:00:39;23.57;;;13.33;;
36855;SDS011;22788;51.434;6.786;2023-11-18T00:03:06;22.97;;;14.07;;
36855;SDS011;22788;51.434;6.786;2023-11-18T00:05:32;26.87;;;14.73;;
36855;SDS011;22788;51.434;6.786;2023-11-18T00:07:58;25.47;;;14.40;;
36855;SDS011;22788;51.434;6.786;2023-11-18T00:10:23;25.10;;;13.93;;
36855;SDS011;22788;51.434;6.786;2023-11-18T00:12:49;22.63;;;13.17;;
36855;SDS011;22788;51.434;6.786;2023-11-18T00:15:14;26.20;;;14.20;;
36855;SDS011;22788;51.434;6.786;2023-11-18T00:17:40;25.77;;;13.70;;
36855;SDS011;22788;51.434;6.786;2023-11-18T00:20:08;23.67;;;13.33;;
36855;SDS011;22788;51.434;6.786;2023-11-18T00:22:35;21.80;;;13.43;;
36855;SDS011;22788;51.434;6.786;2023-11-18T00:25:00;24.73;;;14.30;;
36855;SDS011;22788;51.434;6.786;2023-11-18T00:27:26;22.07;;;13.17;;
36855;SDS011;22788;51.434;6.786;2023-11-18T00:29:52;28.80;;;15.13;;
36855;SDS011;22788;51.434;6.786;2023-11-18T00:32:17;23.90;;;14.37;;
36855;SDS011;22788;51.434;6.786;2023-11-18T00:34:43;20.63;;;12.37;;
36855;SDS011;22788;51.434;6.786;2023-11-18T00:37:10;25.13;;;13.33;;
36855;SDS011;22788;51.434;6.786;2023-11-18T00:39:36;22.60;;;12.97;;
36855;SDS011;22788;51.434;6.786;2023-11-18T00:42:01;25.07;;;13.50;;
36855;SDS011;22788;51.434;6.786;2023-11-18T00:44:27;22.63;;;13.43;;
36855;SDS011;22788;51.434;6.786;2023-11-18T00:46:53;23.07;;;13.53;;
36855;SDS011;22788;51.434;6.786;2023-11-18T00:49:18;21.07;;;12.57;;
36855;SDS011;22788;51.434;6.786;2023-11-18T00:51:44;23.83;;;12.80;;
36855;SDS011;22788;51.434;6.786;2023-11-18T00:54:11;22.57;;;12.93;;
36855;SDS011;22788;51.434;6.786;2023-11-18T00:56:36;25.93;;;13.40;;
36855;SDS011;22788;51.434;6.786;2023-11-18T00:59:02;20.93;;;11.97;;
36855;SDS011;22788;51.434;6.786;2023-11-18T01:01:28;21.07;;;12.20;;
36855;SDS011;22788;51.434;6.786;2023-11-18T01:03:53;22.53;;;12.13;;
36855;SDS011;22788;51.434;6.786;2023-11-18T01:06:19;23.30;;;12.30;;
36855;SDS011;22788;51.434;6.786;2023-11-18T01:08:45;18.80;;;12.20;;
36855;SDS011;22788;51.434;6.786;2023-11-18T01:11:16;23.27;;;12.57;;
36855;SDS011;22788;51.434;6.786;2023-11-18T01:13:42;22.00;;;12.30;;
36855;SDS011;22788;51.434;6.786;2023-11-18T01:16:08;24.63;;;12.73;;
36855;SDS011;22788;51.434;6.786;2023-11-18T01:18:33;21.20;;;11.73;;
36855;SDS011;22788;51.434;6.786;2023-11-18T01:20:59;18.00;;;11.17;;
36855;SDS011;22788;51.434;6.786;2023-11-18T01:23:24;20.27;;;11.47;;
36855;SDS011;22788;51.434;6.786;2023-11-18T01:25:50;23.30;;;12.53;;
36855;SDS011;22788;51.434;6.786;2023-11-18T01:28:17;22.17;;;12.27;;
36855;SDS011;22788;51.434;6.786;2023-11-18T01:30:43;20.10;;;12.00;;
36855;SDS011;22788;51.434;6.786;2023-11-18T01:33:08;20.33;;;11.87;;
36855;SDS011;22788;51.434;6.786;2023-11-18T01:35:34;19.23;;;11.00;;
36855;SDS011;22788;51.434;6.786;2023-11-18T01:38:00;21.57;;;12.17;;
36855;SDS011;22788;51.434;6.786;2023-11-18T01:40:25;20.20;;;12.00;;
36855;SDS011;22788;51.434;6.786;2023-11-18T01:42:51;19.13;;;11.57;;
36855;SDS011;22788;51.434;6.786;2023-11-18T01:45:18;19.57;;;10.33;;
36855;SDS011;22788;51.434;6.786;2023-11-18T01:47:44;24.10;;;13.00;;
36855;SDS011;22788;51.434;6.786;2023-11-18T01:50:10;20.97;;;13.07;;
36855;SDS011;22788;51.434;6.786;2023-11-18T01:52:38;22.80;;;11.97;;
36855;SDS011;22788;51.434;6.786;2023-11-18T01:55:05;19.60;;;11.13;;
36855;SDS011;22788;51.434;6.786;2023-11-18T01:57:31;18.70;;;10.57;;
36855;SDS011;22788;51.434;6.786;2023-11-18T01:59:57;19.77;;;11.20;;
36855;SDS011;22788;51.434;6.786;2023-11-18T02:02:24;22.93;;;11.70;;
36855;SDS011;22788;51.434;6.786;2023-11-18T02:04:50;16.50;;;10.43;;
36855;SDS011;22788;51.434;6.786;2023-11-18T02:07:16;21.40;;;11.67;;
36855;SDS011;22788;51.434;6.786;2023-11-18T02:09:42;21.47;;;11.37;;
36855;SDS011;22788;51.434;6.786;2023-11-18T02:12:13;19.80;;;11.93;;
36855;SDS011;22788;51.434;6.786;2023-11-18T02:14:46;18.70;;;11.43;;
36855;SDS011;22788;51.434;6.786;2023-11-18T02:17:14;19.77;;;10.70;;
36855;SDS011;22788;51.434;6.786;2023-11-18T02:19:46;18.20;;;10.90;;
36855;SDS011;22788;51.434;6.786;2023-11-18T02:22:12;19.13;;;11.13;;
36855;SDS011;22788;51.434;6.786;2023-11-18T02:24:38;23.30;;;11.00;;
36855;SDS011;22788;51.434;6.786;2023-11-18T02:27:05;19.03;;;11.37;;
36855;SDS011;22788;51.434;6.786;2023-11-18T02:29:32;20.40;;;12.17;;
36855;SDS011;22788;51.434;6.786;2023-11-18T02:32:00;21.03;;;11.47;;
36855;SDS011;22788;51.434;6.786;2023-11-18T02:34:32;21.83;;;11.77;;
36855;SDS011;22788;51.434;6.786;2023-11-18T02:36:58;20.83;;;10.87;;
36855;SDS011;22788;51.434;6.786;2023-11-18T02:39:29;16.27;;;9.93;;
36855;SDS011;22788;51.434;6.786;2023-11-18T02:41:57;18.37;;;11.43;;
36855;SDS011;22788;51.434;6.786;2023-11-18T02:44:26;19.00;;;11.70;;
36855;SDS011;22788;51.434;6.786;2023-11-18T02:46:54;19.23;;;11.23;;
36855;SDS011;22788;51.434;6.786;2023-11-18T02:49:20;20.20;;;11.13;;
36855;SDS011;22788;51.434;6.786;2023-11-18T02:51:46;20.17;;;11.40;;
36855;SDS011;22788;51.434;6.786;2023-11-18T02:54:11;18.23;;;11.13;;
36855;SDS011;22788;51.434;6.786;2023-11-18T02:56:37;19.73;;;10.87;;
36855;SDS011;22788;51.434;6.786;2023-11-18T02:59:02;19.97;;;11.90;;
36855;SDS011;22788;51.434;6.786;2023-11-18T03:01:29;18.33;;;11.47;;
36855;SDS011;22788;51.434;6.786;2023-11-18T03:03:55;18.10;;;10.97;;
36855;SDS011;22788;51.434;6.786;2023-11-18T03:06:21;18.20;;;10.50;;
36855;SDS011;22788;51.434;6.786;2023-11-18T03:08:46;18.13;;;10.73;;
36855;SDS011;22788;51.434;6.786;2023-11-18T03:11:12;16.30;;;10.20;;
36855;SDS011;22788;51.434;6.786;2023-11-18T03:13:38;18.20;;;10.53;;
36855;SDS011;22788;51.434;6.786;2023-11-18T03:16:06;19.33;;;11.17;;
36855;SDS011;22788;51.434;6.786;2023-11-18T03:18:33;16.97;;;10.17;;
36855;SDS011;22788;51.434;6.786;2023-11-18T03:20:59;17.23;;;10.20;;
36855;SDS011;22788;51.434;6.786;2023-11-18T03:23:24;17.83;;;10.10;;
36855;SDS011;22788;51.434;6.786;2023-11-18T03:25:50;16.93;;;10.10;;
36855;SDS011;22788;51.434;6.786;2023-11-18T03:28:15;17.10;;;10.37;;
36855;SDS011;22788;51.434;6.786;2023-11-18T03:30:41;17.23;;;10.17;;
36855;SDS011;22788;51.434;6.786;2023-11-18T03:33:07;18.97;;;10.47;;
36855;SDS011;22788;51.434;6.786;2023-11-18T03:35:34;16.10;;;10.50;;
36855;SDS011;22788;51.434;6.786;2023-11-18T03:37:59;16.70;;;9.77;;
36855;SDS011;22788;51.434;6.786;2023-11-18T03:40:25;18.60;;;10.60;;
36855;SDS011;22788;51.434;6.786;2023-11-18T03:42:51;16.80;;;9.80;;
36855;SDS011;22788;51.434;6.786;2023-11-18T03:45:16;20.57;;;9.37;;
36855;SDS011;22788;51.434;6.786;2023-11-18T03:47:42;15.73;;;9.47;;
36855;SDS011;22788;51.434;6.786;2023-11-18T03:50:08;15.17;;;10.00;;
36855;SDS011;22788;51.434;6.786;2023-11-18T03:52:36;13.43;;;9.23;;
36855;SDS011;22788;51.434;6.786;2023-11-18T03:55:02;15.67;;;9.50;;
36855;SDS011;22788;51.434;6.786;2023-11-18T03:57:28;17.57;;;10.00;;
36855;SDS011;22788;51.434;6.786;2023-11-18T03:59:53;15.73;;;9.87;;
36855;SDS011;22788;51.434;6.786;2023-11-18T04:02:19;15.90;;;9.27;;
36855;SDS011;22788;51.434;6.786;2023-11-18T04:04:45;14.83;;;9.77;;
36855;SDS011;22788;51.434;6.786;2023-11-18T04:07:10;16.97;;;10.40;;
36855;SDS011;22788;51.434;6.786;2023-11-18T04:09:37;15.47;;;9.20;;
36855;SDS011;22788;51.434;6.786;2023-11-18T04:12:03;15.13;;;9.60;;
36855;SDS011;22788;51.434;6.786;2023-11-18T04:14:29;16.43;;;9.03;;
36855;SDS011;22788;51.434;6.786;2023-11-18T04:16:54;17.27;;;10.50;;
36855;SDS011;22788;51.434;6.786;2023-11-18T04:19:20;16.87;;;10.10;;
36855;SDS011;22788;51.434;6.786;2023-11-18T04:21:46;16.93;;;10.20;;
36855;SDS011;22788;51.434;6.786;2023-11-18T04:24:12;14.97;;;9.00;;
36855;SDS011;22788;51.434;6.786;2023-11-18T04:26:39;12.80;;;8.63;;
36855;SDS011;22788;51.434;6.786;2023-11-18T04:29:04;15.60;;;9.63;;
36855;SDS011;22788;51.434;6.786;2023-11-18T04:31:30;15.87;;;9.97;;
36855;SDS011;22788;51.434;6.786;2023-11-18T04:33:55;15.17;;;9.40;;
36855;SDS011;22788;51.434;6.786;2023-11-18T04:36:21;15.50;;;9.93;;
36855;SDS011;22788;51.434;6.786;2023-11-18T04:38:47;14.60;;;9.47;;
36855;SDS011;22788;51.434;6.786;2023-11-18T04:41:13;17.57;;;9.40;;
36855;SDS011;22788;51.434;6.786;2023-11-18T04:43:40;15.73;;;9.97;;
36855;SDS011;22788;51.434;6.786;2023-11-18T04:46:06;15.03;;;8.93;;
36855;SDS011;22788;51.434;6.786;2023-11-18T04:48:31;13.93;;;9.40;;
36855;SDS011;22788;51.434;6.786;2023-11-18T04:50:57;16.30;;;9.17;;
36855;SDS011;22788;51.434;6.786;2023-11-18T04:53:22;14.20;;;8.73;;
36855;SDS011;22788;51.434;6.786;2023-11-18T04:55:48;15.13;;;8.67;;
36855;SDS011;22788;51.434;6.786;2023-11-18T04:58:14;14.53;;;9.20;;
36855;SDS011;22788;51.434;6.786;2023-11-18T05:00:41;12.53;;;8.93;;
36855;SDS011;22788;51.434;6.786;2023-11-18T05:03:06;15.63;;;8.83;;
36855;SDS011;22788;51.434;6.786;2023-11-18T05:05:32;12.53;;;9.53;;
36855;SDS011;22788;51.434;6.786;2023-11-18T05:07:58;13.00;;;8.40;;
36855;SDS011;22788;51.434;6.786;2023-11-18T05:10:23;16.60;;;9.07;;
36855;SDS011;22788;51.434;6.786;2023-11-18T05:12:49;13.47;;;8.47;;
36855;SDS011;22788;51.434;6.786;2023-11-18T05:15:14;15.30;;;8.47;;
36855;SDS011;22788;51.434;6.786;2023-11-18T05:17:41;15.70;;;9.33;;
36855;SDS011;22788;51.434;6.786;2023-11-18T05:20:07;14.77;;;8.40;;
36855;SDS011;22788;51.434;6.786;2023-11-18T05:22:33;13.10;;;8.10;;
36855;SDS011;22788;51.434;6.786;2023-11-18T05:24:59;16.63;;;9.50;;
36855;SDS011;22788;51.434;6.786;2023-11-18T05:27:24;14.57;;;9.00;;
36855;SDS011;22788;51.434;6.786;2023-11-18T05:29:50;13.43;;;8.83;;
36855;SDS011;22788;51.434;6.786;2023-11-18T05:32:15;15.90;;;8.93;;
36855;SDS011;22788;51.434;6.786;2023-11-18T05:34:42;14.23;;;8.30;;
36855;SDS011;22788;51.434;6.786;2023-11-18T05:37:08;15.07;;;8.90;;
36855;SDS011;22788;51.434;6.786;2023-11-18T05:39:34;13.10;;;8.53;;
36855;SDS011;22788;51.434;6.786;2023-11-18T05:41:59;14.20;;;8.90;;
36855;SDS011;22788;51.434;6.786;2023-11-18T05:44:25;11.93;;;7.93;;
36855;SDS011;22788;51.434;6.786;2023-11-18T05:46:51;11.40;;;7.10;;
36855;SDS011;22788;51.434;6.786;2023-11-18T05:49:16;13.67;;;8.33;;
36855;SDS011;22788;51.434;6.786;2023-11-18T05:51:45;12.73;;;7.83;;
36855;SDS011;22788;51.434;6.786;2023-11-18T05:54:10;13.50;;;9.23;;
36855;SDS011;22788;51.434;6.786;2023-11-18T05:56:36;12.80;;;8.13;;
36855;SDS011;22788;51.434;6.786;2023-11-18T05:59:02;13.17;;;8.43;;
36855;SDS011;22788;51.434;6.786;2023-11-18T06:01:28;13.23;;;8.30;;
36855;SDS011;22788;51.434;6.786;2023-11-18T06:03:54;16.83;;;9.53;;
36855;SDS011;22788;51.434;6.786;2023-11-18T06:06:20;13.73;;;8.70;;
36855;SDS011;22788;51.434;6.786;2023-11-18T06:08:47;16.03;;;8.90;;
36855;SDS011;22788;51.434;6.786;2023-11-18T06:11:14;13.47;;;8.83;;
36855;SDS011;22788;51.434;6.786;2023-11-18T06:13:41;15.23;;;8.87;;
36855;SDS011;22788;51.434;6.786;2023-11-18T06:16:08;12.13;;;8.93;;
36855;SDS011;22788;51.434;6.786;2023-11-18T06:18:44;12.30;;;8.60;;
36855;SDS011;22788;51.434;6.786;2023-11-18T06:21:20;13.13;;;7.97;;
36855;SDS011;22788;51.434;6.786;2023-11-18T06:23:48;14.17;;;8.13;;
36855;SDS011;22788;51.434;6.786;2023-11-18T06:26:14;13.27;;;8.63;;
36855;SDS011;22788;51.434;6.786;2023-11-18T06:28:41;11.23;;;7.47;;
36855;SDS011;22788;51.434;6.786;2023-11-18T06:31:07;11.60;;;8.20;;
36855;SDS011;22788;51.434;6.786;2023-11-18T06:33:33;10.27;;;7.47;;
36855;SDS011;22788;51.434;6.786;2023-11-18T06:36:01;13.33;;;8.37;;
36855;SDS011;22788;51.434;6.786;2023-11-18T06:38:27;12.00;;;7.57;;
36855;SDS011;22788;51.434;6.786;2023-11-18T06:40:54;11.90;;;7.80;;
36855;SDS011;22788;51.434;6.786;2023-11-18T06:43:20;12.20;;;7.77;;
36855;SDS011;22788;51.434;6.786;2023-11-18T06:45:45;11.97;;;7.73;;
36855;SDS011;22788;51.434;6.786;2023-11-18T06:48:11;12.53;;;8.00;;
36855;SDS011;22788;51.434;6.786;2023-11-18T06:50:37;13.73;;;7.57;;
36855;SDS011;22788;51.434;6.786;2023-11-18T06:53:02;14.97;;;8.63;;
36855;SDS011;22788;51.434;6.786;2023-11-18T06:55:28;13.40;;;8.10;;
36855;SDS011;22788;51.434;6.786;2023-11-18T06:57:55;11.67;;;7.70;;
36855;SDS011;22788;51.434;6.786;2023-11-18T07:00:20;11.63;;;7.33;;
36855;SDS011;22788;51.434;6.786;2023-11-18T07:02:46;11.80;;;7.83;;
36855;SDS011;22788;51.434;6.786;2023-11-18T07:05:12;12.10;;;7.87;;
36855;SDS011;22788;51.434;6.786;2023-11-18T07:07:38;13.90;;;8.07;;
36855;SDS011;22788;51.434;6.786;2023-11-18T07:10:04;12.63;;;7.70;;
36855;SDS011;22788;51.434;6.786;2023-11-18T07:12:31;10.83;;;7.63;;
36855;SDS011;22788;51.434;6.786;2023-11-18T07:14:58;11.33;;;7.63;;
36855;SDS011;22788;51.434;6.786;2023-11-18T07:17:24;13.30;;;7.87;;
36855;SDS011;22788;51.434;6.786;2023-11-18T07:19:50;10.20;;;6.73;;
36855;SDS011;22788;51.434;6.786;2023-11-18T07:22:15;13.50;;;8.40;;
36855;SDS011;22788;51.434;6.786;2023-11-18T07:24:41;12.60;;;7.83;;
36855;SDS011;22788;51.434;6.786;2023-11-18T07:27:06;11.10;;;7.40;;
36855;SDS011;22788;51.434;6.786;2023-11-18T07:29:32;14.13;;;8.27;;
36855;SDS011;22788;51.434;6.786;2023-11-18T07:31:59;11.13;;;7.37;;
36855;SDS011;22788;51.434;6.786;2023-11-18T07:34:25;10.90;;;7.40;;
36855;SDS011;22788;51.434;6.786;2023-11-18T07:36:50;12.57;;;8.20;;
36855;SDS011;22788;51.434;6.786;2023-11-18T07:39:16;11.93;;;7.97;;
36855;SDS011;22788;51.434;6.786;2023-11-18T07:41:41;12.50;;;7.63;;
36855;SDS011;22788;51.434;6.786;2023-11-18T07:44:07;11.80;;;7.03;;
36855;SDS011;22788;51.434;6.786;2023-11-18T07:46:33;13.13;;;8.13;;
36855;SDS011;22788;51.434;6.786;2023-11-18T07:49:00;11.57;;;6.53;;
36855;SDS011;22788;51.434;6.786;2023-11-18T07:51:25;11.13;;;7.30;;
36855;SDS011;22788;51.434;6.786;2023-11-18T07:53:51;13.43;;;7.60;;
36855;SDS011;22788;51.434;6.786;2023-11-18T07:56:17;14.17;;;8.67;;
36855;SDS011;22788;51.434;6.786;2023-11-18T07:58:43;13.80;;;8.30;;
36855;SDS011;22788;51.434;6.786;2023-11-18T08:01:09;11.87;;;6.80;;
36855;SDS011;22788;51.434;6.786;2023-11-18T08:03:34;10.57;;;7.17;;
36855;SDS011;22788;51.434;6.786;2023-11-18T08:06:01;11.13;;;7.47;;
36855;SDS011;22788;51.434;6.786;2023-11-18T08:08:27;13.50;;;7.33;;
36855;SDS011;22788;51.434;6.786;2023-11-18T08:10:53;10.93;;;7.13;;
36855;SDS011;22788;51.434;6.786;2023-11-18T08:13:18;12.57;;;7.07;;
36855;SDS011;22788;51.434;6.786;2023-11-18T08:15:44;12.17;;;7.03;;
36855;SDS011;22788;51.434;6.786;2023-11-18T08:18:09;10.13;;;6.37;;
36855;SDS011;22788;51.434;6.786;2023-11-18T08:20:35;10.10;;;6.93;;
36855;SDS011;22788;51.434;6.786;2023-11-18T08:23:03;10.57;;;7.60;;
36855;SDS011;22788;51.434;6.786;2023-11-18T08:25:29;11.83;;;6.73;;
36855;SDS011;22788;51.434;6.786;2023-11-18T08:27:54;10.23;;;6.73;;
36855;SDS011;22788;51.434;6.786;2023-11-18T08:30:20;11.07;;;6.70;;
36855;SDS011;22788;51.434;6.786;2023-11-18T08:32:46;10.47;;;6.67;;
36855;SDS011;22788;51.434;6.786;2023-11-18T08:35:12;10.97;;;6.73;;
36855;SDS011;22788;51.434;6.786;2023-11-18T08:37:37;10.07;;;7.53;;
36855;SDS011;22788;51.434;6.786;2023-11-18T08:40:06;8.87;;;6.37;;
36855;SDS011;22788;51.434;6.786;2023-11-18T08:42:32;13.37;;;7.07;;
36855;SDS011;22788;51.434;6.786;2023-11-18T08:44:58;8.87;;;6.53;;
36855;SDS011;22788;51.434;6.786;2023-11-18T08:47:24;9.77;;;6.50;;
36855;SDS011;22788;51.434;6.786;2023-11-18T08:49:49;9.50;;;6.17;;
36855;SDS011;22788;51.434;6.786;2023-11-18T08:52:15;11.33;;;6.73;;
36855;SDS011;22788;51.434;6.786;2023-11-18T08:54:40;12.97;;;6.87;;
36855;SDS011;22788;51.434;6.786;2023-11-18T08:57:07;11.47;;;5.63;;
36855;SDS011;22788;51.434;6.786;2023-11-18T08:59:33;13.90;;;6.60;;
36855;SDS011;22788;51.434;6.786;2023-11-18T09:01:58;9.40;;;6.53;;
36855;SDS011;22788;51.434;6.786;2023-11-18T09:04:24;10.50;;;6.47;;
36855;SDS011;22788;51.434;6.786;2023-11-18T09:06:50;9.60;;;6.57;;
36855;SDS011;22788;51.434;6.786;2023-11-18T09:09:15;10.27;;;6.13;;
36855;SDS011;22788;51.434;6.786;2023-11-18T09:11:41;10.60;;;6.83;;
36855;SDS011;22788;51.434;6.786;2023-11-18T09:14:08;9.30;;;5.93;;
36855;SDS011;22788;51.434;6.786;2023-11-18T09:16:34;9.73;;;6.33;;
36855;SDS011;22788;51.434;6.786;2023-11-18T09:18:59;9.50;;;6.33;;
36855;SDS011;22788;51.434;6.786;2023-11-18T09:21:25;10.17;;;6.43;;
36855;SDS011;22788;51.434;6.786;2023-11-18T09:23:50;10.90;;;5.90;;
36855;SDS011;22788;51.434;6.786;2023-11-18T09:26:16;8.80;;;5.53;;
36855;SDS011;22788;51.434;6.786;2023-11-18T09:28:42;10.30;;;6.47;;
36855;SDS011;22788;51.434;6.786;2023-11-18T09:31:10;9.30;;;5.37;;
36855;SDS011;22788;51.434;6.786;2023-11-18T09:33:36;9.10;;;5.83;;
36855;SDS011;22788;51.434;6.786;2023-11-18T09:36:02;9.77;;;5.70;;
36855;SDS011;22788;51.434;6.786;2023-11-18T09:38:29;10.70;;;5.40;;
36855;SDS011;22788;51.434;6.786;2023-11-18T09:40:55;7.83;;;5.40;;
36855;SDS011;22788;51.434;6.786;2023-11-18T09:43:21;9.60;;;6.30;;
36855;SDS011;22788;51.434;6.786;2023-11-18T09:45:49;9.63;;;5.40;;
36855;SDS011;22788;51.434;6.786;2023-11-18T09:48:21;8.80;;;4.97;;
36855;SDS011;22788;51.434;6.786;2023-11-18T09:50:47;6.20;;;4.67;;
36855;SDS011;22788;51.434;6.786;2023-11-18T09:53:15;7.80;;;5.27;;
36855;SDS011;22788;51.434;6.786;2023-11-18T09:55:43;9.07;;;4.97;;
36855;SDS011;22788;51.434;6.786;2023-11-18T09:58:15;7.00;;;5.03;;
36855;SDS011;22788;51.434;6.786;2023-11-18T10:00:43;9.33;;;5.60;;
36855;SDS011;22788;51.434;6.786;2023-11-18T10:03:09;6.60;;;4.90;;
36855;SDS011;22788;51.434;6.786;2023-11-18T10:05:37;7.87;;;5.00;;
36855;SDS011;22788;51.434;6.786;2023-11-18T10:08:05;7.10;;;4.60;;
36855;SDS011;22788;51.434;6.786;2023-11-18T10:10:31;8.07;;;5.30;;
36855;SDS011;22788;51.434;6.786;2023-11-18T10:12:57;9.33;;;5.00;;
36855;SDS011;22788;51.434;6.786;2023-11-18T10:15:23;5.70;;;4.00;;
36855;SDS011;22788;51.434;6.786;2023-11-18T10:17:50;8.17;;;4.60;;
36855;SDS011;22788;51.434;6.786;2023-11-18T10:20:17;7.03;;;4.83;;
36855;SDS011;22788;51.434;6.786;2023-11-18T10:22:44;7.67;;;4.60;;
36855;SDS011;22788;51.434;6.786;2023-11-18T10:25:09;6.07;;;4.17;;
36855;SDS011;22788;51.434;6.786;2023-11-18T10:27:35;9.67;;;4.93;;
36855;SDS011;22788;51.434;6.786;2023-11-18T10:30:01;6.50;;;4.23;;
36855;SDS011;22788;51.434;6.786;2023-11-18T10:32:28;8.27;;;5.30;;
36855;SDS011;22788;51.434;6.786;2023-11-18T10:34:55;7.90;;;4.63;;
36855;SDS011;22788;51.434;6.786;2023-11-18T10:37:21;7.90;;;4.60;;
36855;SDS011;22788;51.434;6.786;2023-11-18T10:39:48;7.57;;;4.50;;
36855;SDS011;22788;51.434;6.786;2023-11-18T10:42:14;7.23;;;4.13;;
36855;SDS011;22788;51.434;6.786;2023-11-18T10:44:44;7.03;;;4.30;;
36855;SDS011;22788;51.434;6.786;2023-11-18T10:47:19;6.57;;;4.30;;
36855;SDS011;22788;51.434;6.786;2023-11-18T10:49:45;6.57;;;3.97;;
36855;SDS011;22788;51.434;6.786;2023-11-18T10:52:11;6.57;;;3.80;;
36855;SDS011;22788;51.434;6.786;2023-11-18T10:54:36;6.40;;;4.00;;
36855;SDS011;22788;51.434;6.786;2023-11-18T10:57:04;3.90;;;3.37;;
36855;SDS011;22788;51.434;6.786;2023-11-18T10:59:30;5.37;;;3.87;;
36855;SDS011;22788;51.434;6.786;2023-11-18T11:01:55;5.77;;;3.90;;
36855;SDS011;22788;51.434;6.786;2023-11-18T11:04:21;6.13;;;4.47;;
36855;SDS011;22788;51.434;6.786;2023-11-18T11:06:47;6.20;;;4.30;;
36855;SDS011;22788;51.434;6.786;2023-11-18T11:09:13;5.70;;;3.70;;
36855;SDS011;22788;51.434;6.786;2023-11-18T11:11:40;5.90;;;4.23;;
36855;SDS011;22788;51.434;6.786;2023-11-18T11:14:14;6.07;;;4.20;;
36855;SDS011;22788;51.434;6.786;2023-11-18T11:16:41;5.03;;;3.83;;
36855;SDS011;22788;51.434;6.786;2023-11-18T11:19:13;4.83;;;3.63;;
36855;SDS011;22788;51.434;6.786;2023-11-18T11:21:47;5.97;;;4.00;;
36855;SDS011;22788;51.434;6.786;2023-11-18T11:24:23;4.77;;;3.33;;
36855;SDS011;22788;51.434;6.786;2023-11-18T11:27:03;5.27;;;3.80;;
36855;SDS011;22788;51.434;6.786;2023-11-18T11:29:45;7.30;;;4.30;;
36855;SDS011;22788;51.434;6.786;2023-11-18T11:32:16;5.07;;;3.67;;
36855;SDS011;22788;51.434;6.786;2023-11-18T11:34:51;7.07;;;3.77;;
36855;SDS011;22788;51.434;6.786;2023-11-18T11:37:19;5.90;;;3.17;;
36855;SDS011;22788;51.434;6.786;2023-11-18T11:39:48;4.20;;;3.57;;
36855;SDS011;22788;51.434;6.786;2023-11-18T11:42:15;7.43;;;4.03;;
36855;SDS011;22788;51.434;6.786;2023-11-18T11:44:45;4.90;;;3.90;;
36855;SDS011;22788;51.434;6.786;2023-11-18T11:47:11;4.97;;;3.20;;
36855;SDS011;22788;51.434;6.786;2023-11-18T11:49:39;5.27;;;3.77;;
36855;SDS011;22788;51.434;6.786;2023-11-18T11:52:14;6.50;;;3.70;;
36855;SDS011;22788;51.434;6.786;2023-11-18T11:54:52;4.53;;;3.43;;
36855;SDS011;22788;51.434;6.786;2023-11-18T11:57:24;6.37;;;3.83;;
36855;SDS011;22788;51.434;6.786;2023-11-18T11:59:57;4.60;;;3.70;;
36855;SDS011;22788;51.434;6.786;2023-11-18T12:02:23;4.77;;;3.07;;
36855;SDS011;22788;51.434;6.786;2023-11-18T12:04:50;5.43;;;2.93;;
36855;SDS011;22788;51.434;6.786;2023-11-18T12:07:16;6.13;;;3.20;;
36855;SDS011;22788;51.434;6.786;2023-11-18T12:09:41;5.27;;;2.97;;
36855;SDS011;22788;51.434;6.786;2023-11-18T12:12:14;5.17;;;3.63;;
36855;SDS011;22788;51.434;6.786;2023-11-18T12:14:49;4.43;;;3.23;;
36855;SDS011;22788;51.434;6.786;2023-11-18T12:17:16;4.10;;;2.93;;
36855;SDS011;22788;51.434;6.786;2023-11-18T12:19:42;4.47;;;3.00;;
36855;SDS011;22788;51.434;6.786;2023-11-18T12:22:07;5.03;;;3.57;;
36855;SDS011;22788;51.434;6.786;2023-11-18T12:24:33;5.27;;;4.13;;
36855;SDS011;22788;51.434;6.786;2023-11-18T12:26:59;5.07;;;2.97;;
36855;SDS011;22788;51.434;6.786;2023-11-18T12:29:30;5.07;;;3.23;;
36855;SDS011;22788;51.434;6.786;2023-11-18T12:31:56;5.97;;;3.30;;
36855;SDS011;22788;51.434;6.786;2023-11-18T12:34:23;3.97;;;3.20;;
36855;SDS011;22788;51.434;6.786;2023-11-18T12:36:55;5.73;;;3.40;;
36855;SDS011;22788;51.434;6.786;2023-11-18T12:43:01;3.83;;;2.90;;
36855;SDS011;22788;51.434;6.786;2023-11-18T12:48:39;6.63;;;3.13;;
36855;SDS011;22788;51.434;6.786;2023-11-18T12:51:10;4.30;;;3.57;;
36855;SDS011;22788;51.434;6.786;2023-11-18T12:53:36;5.90;;;3.40;;
36855;SDS011;22788;51.434;6.786;2023-11-18T12:56:02;5.87;;;3.60;;
36855;SDS011;22788;51.434;6.786;2023-11-18T12:58:29;4.17;;;3.13;;
36855;SDS011;22788;51.434;6.786;2023-11-18T13:00:55;4.23;;;3.00;;
36855;SDS011;22788;51.434;6.786;2023-11-18T13:03:21;5.50;;;3.37;;
36855;SDS011;22788;51.434;6.786;2023-11-18T13:05:46;5.43;;;3.30;;
36855;SDS011;22788;51.434;6.786;2023-11-18T13:08:13;3.77;;;3.37;;
36855;SDS011;22788;51.434;6.786;2023-11-18T13:10:39;5.97;;;3.70;;
36855;SDS011;22788;51.434;6.786;2023-11-18T13:13:05;4.97;;;3.67;;
36855;SDS011;22788;51.434;6.786;2023-11-18T13:15:30;5.10;;;3.17;;
36855;SDS011;22788;51.434;6.786;2023-11-18T13:17:57;6.83;;;3.77;;
36855;SDS011;22788;51.434;6.786;2023-11-18T13:20:23;5.03;;;3.17;;
36855;SDS011;22788;51.434;6.786;2023-11-18T13:22:49;7.17;;;3.30;;
36855;SDS011;22788;51.434;6.786;2023-11-18T13:25:16;3.50;;;3.20;;
36855;SDS011;22788;51.434;6.786;2023-11-18T13:27:42;4.20;;;3.03;;
36855;SDS011;22788;51.434;6.786;2023-11-18T13:30:08;4.57;;;2.87;;
36855;SDS011;22788;51.434;6.786;2023-11-18T13:32:34;3.80;;;3.37;;
36855;SDS011;22788;51.434;6.786;2023-11-18T13:35:00;4.47;;;3.20;;
36855;SDS011;22788;51.434;6.786;2023-11-18T13:37:26;3.63;;;2.80;;
36855;SDS011;22788;51.434;6.786;2023-11-18T13:39:55;3.83;;;2.87;;
36855;SDS011;22788;51.434;6.786;2023-11-18T13:42:23;5.67;;;3.20;;
36855;SDS011;22788;51.434;6.786;2023-11-18T13:44:49;4.47;;;2.90;;
36855;SDS011;22788;51.434;6.786;2023-11-18T13:47:16;4.70;;;3.10;;
36855;SDS011;22788;51.434;6.786;2023-11-18T13:49:42;4.17;;;3.10;;
36855;SDS011;22788;51.434;6.786;2023-11-18T13:52:08;6.43;;;3.00;;
36855;SDS011;22788;51.434;6.786;2023-11-18T13:54:34;7.20;;;3.27;;
36855;SDS011;22788;51.434;6.786;2023-11-18T13:57:00;4.50;;;2.90;;
36855;SDS011;22788;51.434;6.786;2023-11-18T13:59:27;7.53;;;2.80;;
36855;SDS011;22788;51.434;6.786;2023-11-18T14:01:53;4.17;;;3.10;;
36855;SDS011;22788;51.434;6.786;2023-11-18T14:04:19;2.57;;;2.37;;
36855;SDS011;22788;51.434;6.786;2023-11-18T14:06:49;3.63;;;3.27;;
36855;SDS011;22788;51.434;6.786;2023-11-18T14:09:16;3.23;;;2.47;;
36855;SDS011;22788;51.434;6.786;2023-11-18T14:11:41;5.27;;;3.10;;
36855;SDS011;22788;51.434;6.786;2023-11-18T14:14:07;4.13;;;2.83;;
36855;SDS011;22788;51.434;6.786;2023-11-18T14:16:34;4.03;;;2.27;;
36855;SDS011;22788;51.434;6.786;2023-11-18T14:18:59;4.77;;;3.00;;
36855;SDS011;22788;51.434;6.786;2023-11-18T14:21:25;3.20;;;2.53;;
36855;SDS011;22788;51.434;6.786;2023-11-18T14:23:51;3.27;;;2.37;;
36855;SDS011;22788;51.434;6.786;2023-11-18T14:26:16;6.30;;;2.23;;
36855;SDS011;22788;51.434;6.786;2023-11-18T14:28:42;2.67;;;2.43;;
36855;SDS011;22788;51.434;6.786;2023-11-18T14:31:08;3.17;;;2.60;;
36855;SDS011;22788;51.434;6.786;2023-11-18T14:33:35;2.83;;;2.23;;
36855;SDS011;22788;51.434;6.786;2023-11-18T14:36:00;3.70;;;2.17;;
36855;SDS011;22788;51.434;6.786;2023-11-18T14:38:26;5.67;;;2.90;;